sensor_id;sensor_type;location;lat;lon;timestamp;pressure;altitude;pressure_sealevel;temperature;humidity
15750;BME280;7976;52.526;13.326;2023-11-21T00:02:25;100402.53;;;8.68;100.00
15750;BME280;7976;52.526;13.326;2023-11-21T00:04:52;100407.16;;;8.60;100.00
15750;BME280;7976;52.526;13.326;2023-11-21T00:07:20;100410.25;;;8.46;100.00
15750;BME280;7976;52.526;13.326;2023-11-21T00:09:48;100406.25;;;8.36;100.00
15750;BME280;7976;52.526;13.326;2023-11-21T00:12:15;100416.03;;;8.30;100.00
15750;BME280;7976;52.526;13.326;2023-11-21T00:14:43;100411.81;;;8.26;100.00
15750;BME280;7976;52.526;13.326;2023-11-21T00:17:10;100418.09;;;8.19;100.00
15750;BME280;7976;52.526;13.326;2023-11-21T00:19:36;100420.09;;;8.11;100.00
15750;BME280;7976;52.526;13.326;2023-11-21T00:22:03;100428.91;;;8.07;100.00
15750;BME280;7976;52.526;13.326;2023-11-21T00:24:33;100427.31;;;8.03;100.00
15750;BME280;7976;52.526;13.326;2023-11-21T00:27:00;100427.63;;;7.94;100.00
15750;BME280;7976;52.526;13.326;2023-11-21T00:29:27;100433.81;;;7.90;100.00
15750;BME280;7976;52.526;13.326;2023-11-21T00:31:54;100438.38;;;7.83;100.00
15750;BME280;7976;52.526;13.326;2023-11-21T00:34:21;100435.00;;;7.80;100.00
15750;BME280;7976;52.526;13.326;2023-11-21T00:36:48;100436.78;;;7.78;100.00
15750;BME280;7976;52.526;13.326;2023-11-21T00:39:15;100433.31;;;7.79;100.00
15750;BME280;7976;52.526;13.326;2023-11-21T00:41:43;100448.06;;;7.78;100.00
15750;BME280;7976;52.526;13.326;2023-11-21T00:44:10;100448.13;;;7.77;100.00
15750;BME280;7976;52.526;13.326;2023-11-21T00:46:37;100452.63;;;7.72;100.00
15750;BME280;7976;52.526;13.326;2023-11-21T00:49:04;100456.03;;;7.74;100.00
15750;BME280;7976;52.526;13.326;2023-11-21T00:51:30;100443.78;;;7.76;100.00
15750;BME280;7976;52.526;13.326;2023-11-21T00:53:57;100459.25;;;7.82;100.00
15750;BME280;7976;52.526;13.326;2023-11-21T00:56:24;100455.72;;;7.83;100.00
15750;BME280;7976;52.526;13.326;2023-11-21T00:58:53;100454.84;;;7.84;100.00
15750;BME280;7976;52.526;13.326;2023-11-21T01:01:20;100463.69;;;7.78;100.00
15750;BME280;7976;52.526;13.326;2023-11-21T01:03:48;100455.06;;;7.76;100.00
15750;BME280;7976;52.526;13.326;2023-11-21T01:06:15;100469.84;;;7.76;100.00
15750;BME280;7976;52.526;13.326;2023-11-21T01:08:43;100468.13;;;7.75;100.00
15750;BME280;7976;52.526;13.326;2023-11-21T01:11:10;100464.09;;;7.64;100.00
15750;BME280;7976;52.526;13.326;2023-11-21T01:13:38;100478.81;;;7.65;100.00
15750;BME280;7976;52.526;13.326;2023-11-21T01:16:07;100475.34;;;7.67;100.00
15750;BME280;7976;52.526;13.326;2023-11-21T01:18:35;100484.03;;;7.65;100.00
15750;BME280;7976;52.526;13.326;2023-11-21T01:21:01;100489.13;;;7.68;100.00
15750;BME280;7976;52.526;13.326;2023-11-21T01:23:28;100489.06;;;7.72;100.00
15750;BME280;7976;52.526;13.326;2023-11-21T01:25:56;100487.28;;;7.72;100.00
15750;BME280;7976;52.526;13.326;2023-11-21T01:28:23;100499.53;;;7.70;100.00
15750;BME280;7976;52.526;13.326;2023-11-21T01:30:50;100504.75;;;7.68;100.00
15750;BME280;7976;52.526;13.326;2023-11-21T01:33:20;100503.16;;;7.64;100.00
15750;BME280;7976;52.526;13.326;2023-11-21T01:35:47;100505.66;;;7.68;100.00
15750;BME280;7976;52.526;13.326;2023-11-21T01:38:13;100504.75;;;7.68;100.00
15750;BME280;7976;52.526;13.326;2023-11-21T01:40:40;100508.19;;;7.71;100.00
15750;BME280;7976;52.526;13.326;2023-11-21T01:43:07;100508.28;;;7.68;100.00
15750;BME280;7976;52.526;13.326;2023-11-21T01:45:35;100497.13;;;7.62;100.00
15750;BME280;7976;52.526;13.326;2023-11-21T01:48:02;100500.69;;;7.60;100.00
15750;BME280;7976;52.526;13.326;2023-11-21T01:50:33;100510.97;;;7.64;100.00
15750;BME280;7976;52.526;13.326;2023-11-21T01:53:01;100514.34;;;7.68;100.00
15750;BME280;7976;52.526;13.326;2023-11-21T01:55:28;100517.97;;;7.62;100.00
15750;BME280;7976;52.526;13.326;2023-11-21T01:57:56;100522.25;;;7.63;100.00
15750;BME280;7976;52.526;13.326;2023-11-21T02:00:24;100518.94;;;7.58;100.00
15750;BME280;7976;52.526;13.326;2023-11-21T02:02:51;100524.44;;;7.49;100.00
15750;BME280;7976;52.526;13.326;2023-11-21T02:05:20;100529.63;;;7.49;100.00
15750;BME280;7976;52.526;13.326;2023-11-21T02:07:48;100534.97;;;7.45;100.00
15750;BME280;7976;52.526;13.326;2023-11-21T02:10:18;100536.72;;;7.44;100.00
15750;BME280;7976;52.526;13.326;2023-11-21T02:12:49;100529.72;;;7.46;100.00
15750;BME280;7976;52.526;13.326;2023-11-21T02:15:17;100532.34;;;7.46;100.00
15750;BME280;7976;52.526;13.326;2023-11-21T02:17:47;100527.22;;;7.42;100.00
15750;BME280;7976;52.526;13.326;2023-11-21T02:20:17;100546.50;;;7.36;100.00
15750;BME280;7976;52.526;13.326;2023-11-21T02:22:50;100536.09;;;7.36;100.00
15750;BME280;7976;52.526;13.326;2023-11-21T02:25:23;100542.34;;;7.29;100.00
15750;BME280;7976;52.526;13.326;2023-11-21T02:27:50;100546.81;;;7.24;100.00
15750;BME280;7976;52.526;13.326;2023-11-21T02:30:17;100537.38;;;7.20;100.00
15750;BME280;7976;52.526;13.326;2023-11-21T02:32:44;100540.06;;;7.17;100.00
15750;BME280;7976;52.526;13.326;2023-11-21T02:35:11;100544.50;;;7.14;100.00
15750;BME280;7976;52.526;13.326;2023-11-21T02:37:38;100552.34;;;7.12;100.00
15750;BME280;7976;52.526;13.326;2023-11-21T02:40:10;100548.88;;;7.12;100.00
15750;BME280;7976;52.526;13.326;2023-11-21T02:42:39;100548.00;;;7.13;100.00
15750;BME280;7976;52.526;13.326;2023-11-21T02:45:07;100553.28;;;7.10;100.00
15750;BME280;7976;52.526;13.326;2023-11-21T02:47:35;100555.00;;;7.11;100.00
15750;BME280;7976;52.526;13.326;2023-11-21T02:50:02;100551.53;;;7.10;100.00
15750;BME280;7976;52.526;13.326;2023-11-21T02:52:29;100557.50;;;7.14;100.00
15750;BME280;7976;52.526;13.326;2023-11-21T02:54:58;100552.34;;;7.12;100.00
15750;BME280;7976;52.526;13.326;2023-11-21T02:57:27;100547.97;;;7.14;100.00
15750;BME280;7976;52.526;13.326;2023-11-21T02:59:54;100553.13;;;7.16;100.00
15750;BME280;7976;52.526;13.326;2023-11-21T03:02:21;100559.13;;;7.18;100.00
15750;BME280;7976;52.526;13.326;2023-11-21T03:04:51;100560.06;;;7.15;100.00
15750;BME280;7976;52.526;13.326;2023-11-21T03:07:18;100560.88;;;7.17;100.00
15750;BME280;7976;52.526;13.326;2023-11-21T03:09:45;100556.72;;;7.10;100.00
15750;BME280;7976;52.526;13.326;2023-11-21T03:12:12;100565.53;;;7.06;100.00
15750;BME280;7976;52.526;13.326;2023-11-21T03:14:40;100568.03;;;7.09;100.00
15750;BME280;7976;52.526;13.326;2023-11-21T03:17:08;100571.47;;;7.11;100.00
15750;BME280;7976;52.526;13.326;2023-11-21T03:19:34;100573.97;;;7.14;100.00
15750;BME280;7976;52.526;13.326;2023-11-21T03:22:01;100577.44;;;7.13;100.00
15750;BME280;7976;52.526;13.326;2023-11-21T03:24:29;100580.06;;;7.13;100.00
15750;BME280;7976;52.526;13.326;2023-11-21T03:26:56;100583.69;;;7.08;100.00
15750;BME280;7976;52.526;13.326;2023-11-21T03:29:23;100589.75;;;7.07;100.00
15750;BME280;7976;52.526;13.326;2023-11-21T03:31:52;100596.75;;;7.06;100.00
15750;BME280;7976;52.526;13.326;2023-11-21T03:34:24;100596.69;;;7.08;100.00
15750;BME280;7976;52.526;13.326;2023-11-21T03:36:52;100603.69;;;7.06;100.00
15750;BME280;7976;52.526;13.326;2023-11-21T03:39:20;100607.19;;;7.03;100.00
15750;BME280;7976;52.526;13.326;2023-11-21T03:41:49;100607.19;;;7.03;100.00
15750;BME280;7976;52.526;13.326;2023-11-21T03:44:17;100614.34;;;6.95;100.00
15750;BME280;7976;52.526;13.326;2023-11-21T03:46:44;100617.06;;;6.91;100.00
15750;BME280;7976;52.526;13.326;2023-11-21T03:49:13;100626.59;;;6.90;100.00
15750;BME280;7976;52.526;13.326;2023-11-21T03:51:41;100619.78;;;6.86;100.00
15750;BME280;7976;52.526;13.326;2023-11-21T03:54:08;100626.81;;;6.83;100.00
15750;BME280;7976;52.526;13.326;2023-11-21T03:56:38;100630.34;;;6.79;100.00
15750;BME280;7976;52.526;13.326;2023-11-21T03:59:05;100633.81;;;6.79;100.00
15750;BME280;7976;52.526;13.326;2023-11-21T04:01:32;100635.44;;;6.85;100.00
15750;BME280;7976;52.526;13.326;2023-11-21T04:03:59;100631.03;;;6.87;100.00
15750;BME280;7976;52.526;13.326;2023-11-21T04:06:27;100642.19;;;6.90;100.00
15750;BME280;7976;52.526;13.326;2023-11-21T04:08:54;100639.72;;;6.86;99.93
15750;BME280;7976;52.526;13.326;2023-11-21T04:11:21;100639.75;;;6.84;100.00
15750;BME280;7976;52.526;13.326;2023-11-21T04:13:48;100645.84;;;6.83;100.00
15750;BME280;7976;52.526;13.326;2023-11-21T04:16:15;100655.31;;;6.86;99.95
15750;BME280;7976;52.526;13.326;2023-11-21T04:18:42;100650.03;;;6.89;100.00
15750;BME280;7976;52.526;13.326;2023-11-21T04:21:09;100657.94;;;6.86;99.60
15750;BME280;7976;52.526;13.326;2023-11-21T04:23:37;100661.31;;;6.89;99.79
15750;BME280;7976;52.526;13.326;2023-11-21T04:26:05;100663.91;;;6.89;99.70
15750;BME280;7976;52.526;13.326;2023-11-21T04:28:32;100668.38;;;6.84;99.16
15750;BME280;7976;52.526;13.326;2023-11-21T04:31:00;100666.78;;;6.77;98.99
15750;BME280;7976;52.526;13.326;2023-11-21T04:33:27;100669.47;;;6.74;99.24
15750;BME280;7976;52.526;13.326;2023-11-21T04:35:54;100671.31;;;6.69;99.17
15750;BME280;7976;52.526;13.326;2023-11-21T04:38:21;100669.63;;;6.67;98.80
15750;BME280;7976;52.526;13.326;2023-11-21T04:40:49;100677.44;;;6.67;98.82
15750;BME280;7976;52.526;13.326;2023-11-21T04:43:16;100678.22;;;6.70;98.94
15750;BME280;7976;52.526;13.326;2023-11-21T04:45:43;100678.97;;;6.75;98.86
15750;BME280;7976;52.526;13.326;2023-11-21T04:48:10;100684.03;;;6.81;98.63
15750;BME280;7976;52.526;13.326;2023-11-21T04:50:36;100682.25;;;6.83;98.50
15750;BME280;7976;52.526;13.326;2023-11-21T04:53:04;100685.81;;;6.79;98.62
15750;BME280;7976;52.526;13.326;2023-11-21T04:55:31;100689.28;;;6.78;98.49
15750;BME280;7976;52.526;13.326;2023-11-21T04:57:59;100690.97;;;6.81;98.59
15750;BME280;7976;52.526;13.326;2023-11-21T05:00:26;100692.78;;;6.77;97.91
15750;BME280;7976;52.526;13.326;2023-11-21T05:02:53;100699.78;;;6.75;97.69
15750;BME280;7976;52.526;13.326;2023-11-21T05:05:20;100698.94;;;6.73;97.57
15750;BME280;7976;52.526;13.326;2023-11-21T05:07:47;100711.06;;;6.74;97.54
15750;BME280;7976;52.526;13.326;2023-11-21T05:10:14;100706.75;;;6.73;97.20
15750;BME280;7976;52.526;13.326;2023-11-21T05:12:41;100710.31;;;6.69;96.73
15750;BME280;7976;52.526;13.326;2023-11-21T05:15:14;100714.81;;;6.63;96.32
15750;BME280;7976;52.526;13.326;2023-11-21T05:17:43;100714.00;;;6.59;96.06
15750;BME280;7976;52.526;13.326;2023-11-21T05:20:12;100721.91;;;6.55;95.83
15750;BME280;7976;52.526;13.326;2023-11-21T05:22:40;100721.94;;;6.52;95.65
15750;BME280;7976;52.526;13.326;2023-11-21T05:25:08;100726.31;;;6.51;95.68
15750;BME280;7976;52.526;13.326;2023-11-21T05:27:35;100726.25;;;6.54;95.66
15750;BME280;7976;52.526;13.326;2023-11-21T05:30:03;100734.94;;;6.52;95.57
15750;BME280;7976;52.526;13.326;2023-11-21T05:32:34;100724.53;;;6.52;95.53
15750;BME280;7976;52.526;13.326;2023-11-21T05:35:04;100728.03;;;6.51;95.56
15750;BME280;7976;52.526;13.326;2023-11-21T05:37:35;100735.00;;;6.49;95.28
15750;BME280;7976;52.526;13.326;2023-11-21T05:40:07;100743.78;;;6.43;95.34
15750;BME280;7976;52.526;13.326;2023-11-21T05:42:34;100742.97;;;6.41;95.01
15750;BME280;7976;52.526;13.326;2023-11-21T05:45:01;100754.31;;;6.37;95.02
15750;BME280;7976;52.526;13.326;2023-11-21T05:47:38;100758.66;;;6.36;95.18
15750;BME280;7976;52.526;13.326;2023-11-21T05:50:07;100764.72;;;6.37;94.98
15750;BME280;7976;52.526;13.326;2023-11-21T05:52:43;100756.03;;;6.36;95.29
15750;BME280;7976;52.526;13.326;2023-11-21T05:55:11;100757.75;;;6.39;94.97
15750;BME280;7976;52.526;13.326;2023-11-21T05:57:40;100759.44;;;6.40;94.87
15750;BME280;7976;52.526;13.326;2023-11-21T06:00:10;100764.56;;;6.43;94.93
15750;BME280;7976;52.526;13.326;2023-11-21T06:02:40;100779.31;;;6.44;94.59
15750;BME280;7976;52.526;13.326;2023-11-21T06:05:08;100777.66;;;6.38;94.19
15750;BME280;7976;52.526;13.326;2023-11-21T06:07:37;100776.88;;;6.35;94.03
15750;BME280;7976;52.526;13.326;2023-11-21T06:10:05;100775.22;;;6.31;93.81
15750;BME280;7976;52.526;13.326;2023-11-21T06:12:34;100786.56;;;6.27;93.77
15750;BME280;7976;52.526;13.326;2023-11-21T06:15:02;100789.16;;;6.27;93.85
15750;BME280;7976;52.526;13.326;2023-11-21T06:17:31;100786.56;;;6.27;93.87
15750;BME280;7976;52.526;13.326;2023-11-21T06:19:59;100794.28;;;6.30;93.85
15750;BME280;7976;52.526;13.326;2023-11-21T06:22:26;100802.88;;;6.33;93.93
15750;BME280;7976;52.526;13.326;2023-11-21T06:24:53;100804.59;;;6.36;93.57
15750;BME280;7976;52.526;13.326;2023-11-21T06:27:20;100809.81;;;6.33;93.27
15750;BME280;7976;52.526;13.326;2023-11-21T06:29:47;100816.06;;;6.24;92.91
15750;BME280;7976;52.526;13.326;2023-11-21T06:32:14;100816.16;;;6.18;93.16
15750;BME280;7976;52.526;13.326;2023-11-21T06:34:42;100830.03;;;6.17;93.11
15750;BME280;7976;52.526;13.326;2023-11-21T06:37:10;100829.19;;;6.17;93.17
15750;BME280;7976;52.526;13.326;2023-11-21T06:39:37;100833.47;;;6.18;93.14
15750;BME280;7976;52.526;13.326;2023-11-21T06:42:05;100831.88;;;6.12;92.93
15750;BME280;7976;52.526;13.326;2023-11-21T06:44:32;100837.91;;;6.13;92.87
15750;BME280;7976;52.526;13.326;2023-11-21T06:47:01;100848.22;;;6.17;93.19
15750;BME280;7976;52.526;13.326;2023-11-21T06:49:28;100846.44;;;6.21;92.96
15750;BME280;7976;52.526;13.326;2023-11-21T06:51:55;100849.84;;;6.24;93.04
15750;BME280;7976;52.526;13.326;2023-11-21T06:54:23;100855.00;;;6.26;92.90
15750;BME280;7976;52.526;13.326;2023-11-21T06:56:50;100849.00;;;6.22;92.75
15750;BME280;7976;52.526;13.326;2023-11-21T06:59:19;100855.94;;;6.22;92.72
15750;BME280;7976;52.526;13.326;2023-11-21T07:01:45;100849.94;;;6.18;92.70
15750;BME280;7976;52.526;13.326;2023-11-21T07:04:12;100853.34;;;6.22;92.74
15750;BME280;7976;52.526;13.326;2023-11-21T07:06:39;100850.69;;;6.25;92.71
15750;BME280;7976;52.526;13.326;2023-11-21T07:09:06;100860.25;;;6.21;92.26
15750;BME280;7976;52.526;13.326;2023-11-21T07:11:35;100856.81;;;6.21;92.13
15750;BME280;7976;52.526;13.326;2023-11-21T07:14:02;100861.97;;;6.24;91.93
15750;BME280;7976;52.526;13.326;2023-11-21T07:16:33;100861.97;;;6.24;91.69
15750;BME280;7976;52.526;13.326;2023-11-21T07:19:03;100867.16;;;6.24;91.83
15750;BME280;7976;52.526;13.326;2023-11-21T07:21:31;100872.28;;;6.27;91.50
15750;BME280;7976;52.526;13.326;2023-11-21T07:23:59;100859.25;;;6.30;91.26
15750;BME280;7976;52.526;13.326;2023-11-21T07:26:27;100857.47;;;6.32;91.12
15750;BME280;7976;52.526;13.326;2023-11-21T07:28:55;100867.88;;;6.32;90.80
15750;BME280;7976;52.526;13.326;2023-11-21T07:31:22;100868.00;;;6.26;90.77
15750;BME280;7976;52.526;13.326;2023-11-21T07:33:51;100868.91;;;6.22;90.83
15750;BME280;7976;52.526;13.326;2023-11-21T07:36:19;100872.44;;;6.19;90.81
15750;BME280;7976;52.526;13.326;2023-11-21T07:38:47;100879.38;;;6.19;91.04
15750;BME280;7976;52.526;13.326;2023-11-21T07:41:14;100884.50;;;6.22;90.78
15750;BME280;7976;52.526;13.326;2023-11-21T07:43:42;100886.22;;;6.24;90.75
15750;BME280;7976;52.526;13.326;2023-11-21T07:46:10;100890.50;;;6.25;90.49
15750;BME280;7976;52.526;13.326;2023-11-21T07:48:39;100887.91;;;6.25;90.31
15750;BME280;7976;52.526;13.326;2023-11-21T07:51:07;100884.50;;;6.22;90.25
15750;BME280;7976;52.526;13.326;2023-11-21T07:53:34;100887.94;;;6.24;90.43
15750;BME280;7976;52.526;13.326;2023-11-21T07:56:04;100890.44;;;6.28;90.20
15750;BME280;7976;52.526;13.326;2023-11-21T07:58:31;100888.75;;;6.27;90.31
15750;BME280;7976;52.526;13.326;2023-11-21T08:00:59;100894.78;;;6.28;90.22
15750;BME280;7976;52.526;13.326;2023-11-21T08:03:27;100898.31;;;6.25;90.22
15750;BME280;7976;52.526;13.326;2023-11-21T08:05:55;100912.03;;;6.32;90.28
15750;BME280;7976;52.526;13.326;2023-11-21T08:08:23;100915.44;;;6.35;89.82
15750;BME280;7976;52.526;13.326;2023-11-21T08:10:50;100917.13;;;6.38;89.75
15750;BME280;7976;52.526;13.326;2023-11-21T08:13:22;100922.31;;;6.38;89.76
15750;BME280;7976;52.526;13.326;2023-11-21T08:15:49;100924.13;;;6.36;89.63
15750;BME280;7976;52.526;13.326;2023-11-21T08:18:16;100930.19;;;6.33;89.16
15750;BME280;7976;52.526;13.326;2023-11-21T08:20:44;100928.59;;;6.26;89.35
15750;BME280;7976;52.526;13.326;2023-11-21T08:23:14;100937.38;;;6.19;89.40
15750;BME280;7976;52.526;13.326;2023-11-21T08:25:42;100934.00;;;6.14;89.50
15750;BME280;7976;52.526;13.326;2023-11-21T08:28:09;100930.59;;;6.11;90.01
15750;BME280;7976;52.526;13.326;2023-11-21T08:30:36;100935.75;;;6.14;89.68
15750;BME280;7976;52.526;13.326;2023-11-21T08:33:03;100948.78;;;6.11;89.71
15750;BME280;7976;52.526;13.326;2023-11-21T08:35:31;100934.94;;;6.10;89.83
15750;BME280;7976;52.526;13.326;2023-11-21T08:37:59;100943.53;;;6.14;89.68
15750;BME280;7976;52.526;13.326;2023-11-21T08:40:26;100946.94;;;6.17;89.80
15750;BME280;7976;52.526;13.326;2023-11-21T08:42:53;100946.88;;;6.20;89.97
15750;BME280;7976;52.526;13.326;2023-11-21T08:45:21;100944.25;;;6.22;89.77
15750;BME280;7976;52.526;13.326;2023-11-21T08:47:48;100947.63;;;6.27;89.59
15750;BME280;7976;52.526;13.326;2023-11-21T08:50:16;100959.72;;;6.31;89.55
15750;BME280;7976;52.526;13.326;2023-11-21T08:52:44;100960.50;;;6.33;89.39
15750;BME280;7976;52.526;13.326;2023-11-21T08:55:14;100955.31;;;6.33;89.68
15750;BME280;7976;52.526;13.326;2023-11-21T08:57:43;100967.34;;;6.40;89.89
15750;BME280;7976;52.526;13.326;2023-11-21T09:00:12;100966.44;;;6.43;89.89
15750;BME280;7976;52.526;13.326;2023-11-21T09:02:39;100979.47;;;6.41;90.03
15750;BME280;7976;52.526;13.326;2023-11-21T09:05:08;100976.91;;;6.40;90.00
15750;BME280;7976;52.526;13.326;2023-11-21T09:07:36;100978.63;;;6.39;90.07
15750;BME280;7976;52.526;13.326;2023-11-21T09:10:03;100981.31;;;6.34;89.97
15750;BME280;7976;52.526;13.326;2023-11-21T09:12:34;100988.31;;;6.29;89.80
15750;BME280;7976;52.526;13.326;2023-11-21T09:15:03;100988.31;;;6.28;89.66
15750;BME280;7976;52.526;13.326;2023-11-21T09:17:31;101000.44;;;6.29;89.83
15750;BME280;7976;52.526;13.326;2023-11-21T09:19:58;101003.91;;;6.28;89.72
15750;BME280;7976;52.526;13.326;2023-11-21T09:22:25;101006.47;;;6.31;90.10
15750;BME280;7976;52.526;13.326;2023-11-21T09:24:52;101009.09;;;6.29;89.80
15750;BME280;7976;52.526;13.326;2023-11-21T09:27:19;101016.84;;;6.32;90.05
15750;BME280;7976;52.526;13.326;2023-11-21T09:29:48;101015.09;;;6.33;89.76
15750;BME280;7976;52.526;13.326;2023-11-21T09:32:15;101015.09;;;6.31;89.71
15750;BME280;7976;52.526;13.326;2023-11-21T09:34:44;101019.50;;;6.29;89.55
15750;BME280;7976;52.526;13.326;2023-11-21T09:37:11;101010.88;;;6.26;89.62
15750;BME280;7976;52.526;13.326;2023-11-21T09:39:38;101025.59;;;6.25;89.64
15750;BME280;7976;52.526;13.326;2023-11-21T09:42:12;101022.97;;;6.27;90.05
15750;BME280;7976;52.526;13.326;2023-11-21T09:44:51;101029.06;;;6.26;89.74
15750;BME280;7976;52.526;13.326;2023-11-21T09:47:21;101035.97;;;6.27;90.16
15750;BME280;7976;52.526;13.326;2023-11-21T09:49:49;101028.13;;;6.30;90.25
15750;BME280;7976;52.526;13.326;2023-11-21T09:52:25;101042.84;;;6.32;89.98
15750;BME280;7976;52.526;13.326;2023-11-21T09:54:53;101043.72;;;6.30;89.67
15750;BME280;7976;52.526;13.326;2023-11-21T09:57:24;101051.59;;;6.25;89.50
15750;BME280;7976;52.526;13.326;2023-11-21T09:59:54;101047.34;;;6.20;89.40
15750;BME280;7976;52.526;13.326;2023-11-21T10:02:26;101040.47;;;6.16;89.26
15750;BME280;7976;52.526;13.326;2023-11-21T10:04:56;101044.88;;;6.11;89.39
15750;BME280;7976;52.526;13.326;2023-11-21T10:07:26;101048.41;;;6.07;89.40
15750;BME280;7976;52.526;13.326;2023-11-21T10:09:54;101044.94;;;6.06;89.61
15750;BME280;7976;52.526;13.326;2023-11-21T10:12:23;101046.72;;;6.04;89.54
15750;BME280;7976;52.526;13.326;2023-11-21T10:14:54;101053.63;;;6.04;89.52
15750;BME280;7976;52.526;13.326;2023-11-21T10:17:26;101054.53;;;6.00;89.56
15750;BME280;7976;52.526;13.326;2023-11-21T10:19:56;101051.09;;;6.01;89.75
15750;BME280;7976;52.526;13.326;2023-11-21T10:22:24;101051.09;;;6.01;89.48
15750;BME280;7976;52.526;13.326;2023-11-21T10:24:51;101048.41;;;6.05;89.33
15750;BME280;7976;52.526;13.326;2023-11-21T10:27:18;101063.19;;;6.02;89.12
15750;BME280;7976;52.526;13.326;2023-11-21T10:29:44;101051.19;;;5.92;88.86
15750;BME280;7976;52.526;13.326;2023-11-21T10:32:13;101052.16;;;5.85;89.02
15750;BME280;7976;52.526;13.326;2023-11-21T10:34:40;101063.44;;;5.84;89.31
15750;BME280;7976;52.526;13.326;2023-11-21T10:37:13;101052.94;;;5.90;89.76
15750;BME280;7976;52.526;13.326;2023-11-21T10:39:41;101064.13;;;5.95;89.58
15750;BME280;7976;52.526;13.326;2023-11-21T10:42:09;101073.56;;;6.02;89.92
15750;BME280;7976;52.526;13.326;2023-11-21T10:44:36;101064.00;;;6.05;89.79
15750;BME280;7976;52.526;13.326;2023-11-21T10:47:03;101066.56;;;6.07;89.94
15750;BME280;7976;52.526;13.326;2023-11-21T10:49:32;101075.25;;;6.06;89.96
15750;BME280;7976;52.526;13.326;2023-11-21T10:51:59;101076.19;;;6.00;89.89
15750;BME280;7976;52.526;13.326;2023-11-21T10:54:26;101092.75;;;5.92;90.20
15750;BME280;7976;52.526;13.326;2023-11-21T10:56:57;101083.28;;;5.89;90.49
15750;BME280;7976;52.526;13.326;2023-11-21T10:59:28;101092.84;;;5.86;90.60
15750;BME280;7976;52.526;13.326;2023-11-21T11:01:58;101088.47;;;5.86;91.40
15750;BME280;7976;52.526;13.326;2023-11-21T11:04:27;101097.09;;;5.90;91.24
15750;BME280;7976;52.526;13.326;2023-11-21T11:07:01;101084.22;;;5.81;90.72
15750;BME280;7976;52.526;13.326;2023-11-21T11:09:31;101103.38;;;5.71;91.06
15750;BME280;7976;52.526;13.326;2023-11-21T11:11:59;101099.97;;;5.66;91.49
15750;BME280;7976;52.526;13.326;2023-11-21T11:14:27;101099.06;;;5.68;91.73
15750;BME280;7976;52.526;13.326;2023-11-21T11:16:55;101103.41;;;5.69;91.86
15750;BME280;7976;52.526;13.326;2023-11-21T11:19:22;101107.75;;;5.66;91.99
15750;BME280;7976;52.526;13.326;2023-11-21T11:22:03;101106.94;;;5.62;91.87
15750;BME280;7976;52.526;13.326;2023-11-21T11:25:03;101106.13;;;5.56;91.99
15750;BME280;7976;52.526;13.326;2023-11-21T11:27:50;101122.56;;;5.55;92.15
15750;BME280;7976;52.526;13.326;2023-11-21T11:30:35;101120.91;;;5.49;92.21
15750;BME280;7976;52.526;13.326;2023-11-21T11:33:18;101127.88;;;5.46;92.44
15750;BME280;7976;52.526;13.326;2023-11-21T11:35:59;101131.31;;;5.45;92.55
15750;BME280;7976;52.526;13.326;2023-11-21T11:38:33;101139.09;;;5.49;92.70
15750;BME280;7976;52.526;13.326;2023-11-21T11:41:03;101142.53;;;5.48;92.58
15750;BME280;7976;52.526;13.326;2023-11-21T11:43:31;101151.28;;;5.38;92.51
15750;BME280;7976;52.526;13.326;2023-11-21T11:46:05;101148.72;;;5.35;93.09
15750;BME280;7976;52.526;13.326;2023-11-21T11:48:37;101155.63;;;5.35;93.02
15750;BME280;7976;52.526;13.326;2023-11-21T11:51:11;101147.03;;;5.30;93.54
15750;BME280;7976;52.526;13.326;2023-11-21T11:53:42;101150.47;;;5.32;93.30
15750;BME280;7976;52.526;13.326;2023-11-21T11:56:26;101162.59;;;5.34;93.47
15750;BME280;7976;52.526;13.326;2023-11-21T11:58:56;101162.56;;;5.37;93.44
15750;BME280;7976;52.526;13.326;2023-11-21T12:01:26;101167.69;;;5.42;93.61
15750;BME280;7976;52.526;13.326;2023-11-21T12:04:23;101174.59;;;5.44;93.49
15750;BME280;7976;52.526;13.326;2023-11-21T12:07:00;101161.59;;;5.46;93.80
15750;BME280;7976;52.526;13.326;2023-11-21T12:09:31;101178.81;;;5.56;93.67
15750;BME280;7976;52.526;13.326;2023-11-21T12:11:59;101184.00;;;5.56;93.38
15750;BME280;7976;52.526;13.326;2023-11-21T12:14:26;101183.09;;;5.57;93.35
15750;BME280;7976;52.526;13.326;2023-11-21T12:16:54;101182.25;;;5.55;93.31
15750;BME280;7976;52.526;13.326;2023-11-21T12:19:21;101182.38;;;5.44;92.93
15750;BME280;7976;52.526;13.326;2023-11-21T12:21:49;101189.28;;;5.44;93.14
15750;BME280;7976;52.526;13.326;2023-11-21T12:24:16;101187.50;;;5.49;93.70
15750;BME280;7976;52.526;13.326;2023-11-21T12:26:44;101192.69;;;5.50;93.32
15750;BME280;7976;52.526;13.326;2023-11-21T12:29:11;101198.75;;;5.51;93.21
15750;BME280;7976;52.526;13.326;2023-11-21T12:31:38;101213.47;;;5.49;93.32
15750;BME280;7976;52.526;13.326;2023-11-21T12:34:06;101202.25;;;5.44;92.91
15750;BME280;7976;52.526;13.326;2023-11-21T12:36:37;101215.28;;;5.39;93.09
15750;BME280;7976;52.526;13.326;2023-11-21T12:39:04;101214.34;;;5.45;93.57
15750;BME280;7976;52.526;13.326;2023-11-21T12:41:34;101212.56;;;5.50;93.24
15750;BME280;7976;52.526;13.326;2023-11-21T12:44:03;101210.81;;;5.55;93.13
15750;BME280;7976;52.526;13.326;2023-11-21T12:46:30;101216.00;;;5.55;93.01
15750;BME280;7976;52.526;13.326;2023-11-21T12:49:00;101212.53;;;5.56;92.94
15750;BME280;7976;52.526;13.326;2023-11-21T12:51:27;101215.06;;;5.63;93.12
15750;BME280;7976;52.526;13.326;2023-11-21T12:53:55;101217.56;;;5.74;92.90
15750;BME280;7976;52.526;13.326;2023-11-21T12:56:22;101218.38;;;5.79;92.60
15750;BME280;7976;52.526;13.326;2023-11-21T12:58:50;101222.69;;;5.84;92.24
15750;BME280;7976;52.526;13.326;2023-11-21T13:01:25;101225.25;;;5.86;91.60
15750;BME280;7976;52.526;13.326;2023-11-21T13:03:54;101230.44;;;5.81;91.39
15750;BME280;7976;52.526;13.326;2023-11-21T13:06:20;101232.25;;;5.73;91.10